sensor_id;sensor_type;location;lat;lon;timestamp;P1;durP1;ratioP1;P2;durP2;ratioP2
49051;SDS011;34866;48.670;18.260;2022-12-18T00:01:48;25.90;;;7.35;;
49051;SDS011;34866;48.670;18.260;2022-12-18T00:04:21;23.50;;;6.28;;
49051;SDS011;34866;48.670;18.260;2022-12-18T00:06:47;23.48;;;8.77;;
49051;SDS011;34866;48.670;18.260;2022-12-18T00:09:13;42.28;;;6.95;;
49051;SDS011;34866;48.670;18.260;2022-12-18T00:11:39;25.70;;;7.70;;
49051;SDS011;34866;48.670;18.260;2022-12-18T00:14:05;24.95;;;8.80;;
49051;SDS011;34866;48.670;18.260;2022-12-18T00:16:31;10.88;;;6.60;;
49051;SDS011;34866;48.670;18.260;2022-12-18T00:18:58;12.00;;;7.68;;
49051;SDS011;34866;48.670;18.260;2022-12-18T00:21:25;11.05;;;5.75;;
49051;SDS011;34866;48.670;18.260;2022-12-18T00:23:51;11.95;;;7.13;;
49051;SDS011;34866;48.670;18.260;2022-12-18T00:26:19;10.80;;;7.70;;
49051;SDS011;34866;48.670;18.260;2022-12-18T00:28:47;16.73;;;8.73;;
49051;SDS011;34866;48.670;18.260;2022-12-18T00:31:15;22.67;;;8.75;;
49051;SDS011;34866;48.670;18.260;2022-12-18T00:33:41;15.32;;;8.90;;
49051;SDS011;34866;48.670;18.260;2022-12-18T00:36:14;35.00;;;10.27;;
49051;SDS011;34866;48.670;18.260;2022-12-18T00:38:42;16.38;;;8.18;;
49051;SDS011;34866;48.670;18.260;2022-12-18T00:41:12;19.65;;;6.60;;
49051;SDS011;34866;48.670;18.260;2022-12-18T00:43:59;17.27;;;9.18;;
49051;SDS011;34866;48.670;18.260;2022-12-18T00:46:24;19.10;;;5.93;;
49051;SDS011;34866;48.670;18.260;2022-12-18T00:48:50;13.88;;;8.82;;
49051;SDS011;34866;48.670;18.260;2022-12-18T00:51:15;10.45;;;7.65;;
49051;SDS011;34866;48.670;18.260;2022-12-18T00:53:41;16.98;;;10.20;;
49051;SDS011;34866;48.670;18.260;2022-12-18T00:56:06;21.77;;;9.35;;
49051;SDS011;34866;48.670;18.260;2022-12-18T00:58:35;19.52;;;8.95;;
49051;SDS011;34866;48.670;18.260;2022-12-18T01:01:01;19.98;;;7.07;;
49051;SDS011;34866;48.670;18.260;2022-12-18T01:03:29;12.73;;;9.40;;
49051;SDS011;34866;48.670;18.260;2022-12-18T01:05:55;10.35;;;6.43;;
49051;SDS011;34866;48.670;18.260;2022-12-18T01:08:21;13.85;;;9.38;;
49051;SDS011;34866;48.670;18.260;2022-12-18T01:10:47;21.50;;;10.77;;
49051;SDS011;34866;48.670;18.260;2022-12-18T01:13:12;13.15;;;7.10;;
49051;SDS011;34866;48.670;18.260;2022-12-18T01:15:38;12.70;;;9.07;;
49051;SDS011;34866;48.670;18.260;2022-12-18T01:18:04;29.83;;;8.88;;
49051;SDS011;34866;48.670;18.260;2022-12-18T01:20:31;11.65;;;8.65;;
49051;SDS011;34866;48.670;18.260;2022-12-18T01:22:57;13.50;;;7.25;;
49051;SDS011;34866;48.670;18.260;2022-12-18T01:25:22;7.80;;;6.18;;
49051;SDS011;34866;48.670;18.260;2022-12-18T01:27:48;12.25;;;7.90;;
49051;SDS011;34866;48.670;18.260;2022-12-18T01:30:14;12.65;;;7.68;;
49051;SDS011;34866;48.670;18.260;2022-12-18T01:32:39;14.95;;;7.43;;
49051;SDS011;34866;48.670;18.260;2022-12-18T01:35:06;14.07;;;7.45;;
49051;SDS011;34866;48.670;18.260;2022-12-18T01:37:32;25.92;;;8.00;;
49051;SDS011;34866;48.670;18.260;2022-12-18T01:39:57;16.65;;;8.18;;
49051;SDS011;34866;48.670;18.260;2022-12-18T01:42:23;11.10;;;8.02;;
49051;SDS011;34866;48.670;18.260;2022-12-18T01:50:10;18.60;;;9.15;;
49051;SDS011;34866;48.670;18.260;2022-12-18T01:52:39;12.02;;;8.55;;
49051;SDS011;34866;48.670;18.260;2022-12-18T01:55:07;20.38;;;7.80;;
49051;SDS011;34866;48.670;18.260;2022-12-18T01:57:36;17.60;;;8.98;;
49051;SDS011;34866;48.670;18.260;2022-12-18T02:00:10;12.52;;;6.28;;
49051;SDS011;34866;48.670;18.260;2022-12-18T02:02:39;15.82;;;7.30;;
49051;SDS011;34866;48.670;18.260;2022-12-18T02:05:06;24.90;;;7.45;;
49051;SDS011;34866;48.670;18.260;2022-12-18T02:10:23;14.63;;;7.20;;
49051;SDS011;34866;48.670;18.260;2022-12-18T02:13:05;17.45;;;7.00;;
49051;SDS011;34866;48.670;18.260;2022-12-18T02:16:13;22.40;;;6.95;;
49051;SDS011;34866;48.670;18.260;2022-12-18T02:19:06;14.20;;;6.28;;
49051;SDS011;34866;48.670;18.260;2022-12-18T02:21:55;10.43;;;6.47;;
49051;SDS011;34866;48.670;18.260;2022-12-18T02:27:14;17.58;;;6.80;;
49051;SDS011;34866;48.670;18.260;2022-12-18T02:29:54;19.85;;;7.68;;
49051;SDS011;34866;48.670;18.260;2022-12-18T02:32:45;14.13;;;6.60;;
49051;SDS011;34866;48.670;18.260;2022-12-18T02:35:13;21.95;;;7.68;;
49051;SDS011;34866;48.670;18.260;2022-12-18T02:37:42;15.38;;;8.35;;
49051;SDS011;34866;48.670;18.260;2022-12-18T02:40:10;21.27;;;9.80;;
49051;SDS011;34866;48.670;18.260;2022-12-18T02:42:38;13.88;;;8.50;;
49051;SDS011;34866;48.670;18.260;2022-12-18T02:45:04;14.05;;;7.45;;
49051;SDS011;34866;48.670;18.260;2022-12-18T02:47:31;10.90;;;5.40;;
49051;SDS011;34866;48.670;18.260;2022-12-18T02:50:05;20.60;;;10.90;;
49051;SDS011;34866;48.670;18.260;2022-12-18T02:58:34;9.40;;;7.63;;
49051;SDS011;34866;48.670;18.260;2022-12-18T03:01:50;18.38;;;9.32;;
49051;SDS011;34866;48.670;18.260;2022-12-18T03:04:25;15.18;;;7.95;;
49051;SDS011;34866;48.670;18.260;2022-12-18T03:06:56;15.10;;;8.68;;
49051;SDS011;34866;48.670;18.260;2022-12-18T03:09:27;12.38;;;7.22;;
49051;SDS011;34866;48.670;18.260;2022-12-18T03:11:59;27.88;;;8.57;;
49051;SDS011;34866;48.670;18.260;2022-12-18T03:17:25;6.47;;;5.22;;
49051;SDS011;34866;48.670;18.260;2022-12-18T03:19:52;18.45;;;7.20;;
49051;SDS011;34866;48.670;18.260;2022-12-18T03:22:23;14.77;;;9.73;;
49051;SDS011;34866;48.670;18.260;2022-12-18T03:24:51;30.20;;;10.02;;
49051;SDS011;34866;48.670;18.260;2022-12-18T03:27:19;21.10;;;6.28;;
49051;SDS011;34866;48.670;18.260;2022-12-18T03:29:49;15.52;;;8.82;;
49051;SDS011;34866;48.670;18.260;2022-12-18T03:32:33;4.93;;;3.90;;
49051;SDS011;34866;48.670;18.260;2022-12-18T03:35:06;10.35;;;8.35;;
49051;SDS011;34866;48.670;18.260;2022-12-18T03:37:35;19.85;;;6.30;;
49051;SDS011;34866;48.670;18.260;2022-12-18T03:40:02;17.58;;;7.07;;
49051;SDS011;34866;48.670;18.260;2022-12-18T03:42:32;17.25;;;6.70;;
49051;SDS011;34866;48.670;18.260;2022-12-18T03:45:26;16.55;;;9.15;;
49051;SDS011;34866;48.670;18.260;2022-12-18T03:47:58;15.43;;;8.52;;
49051;SDS011;34866;48.670;18.260;2022-12-18T03:50:35;10.13;;;6.50;;
49051;SDS011;34866;48.670;18.260;2022-12-18T03:53:17;12.43;;;6.25;;
49051;SDS011;34866;48.670;18.260;2022-12-18T03:56:04;10.02;;;5.63;;
49051;SDS011;34866;48.670;18.260;2022-12-18T03:58:31;11.43;;;6.40;;
49051;SDS011;34866;48.670;18.260;2022-12-18T04:01:00;9.82;;;6.55;;
49051;SDS011;34866;48.670;18.260;2022-12-18T04:03:28;9.15;;;6.93;;
49051;SDS011;34866;48.670;18.260;2022-12-18T04:05:56;18.75;;;8.55;;
49051;SDS011;34866;48.670;18.260;2022-12-18T04:08:25;10.23;;;6.57;;
49051;SDS011;34866;48.670;18.260;2022-12-18T04:10:51;17.98;;;7.57;;
49051;SDS011;34866;48.670;18.260;2022-12-18T04:13:24;12.68;;;4.68;;
49051;SDS011;34866;48.670;18.260;2022-12-18T04:15:53;25.10;;;9.38;;
49051;SDS011;34866;48.670;18.260;2022-12-18T04:18:19;8.32;;;6.55;;
49051;SDS011;34866;48.670;18.260;2022-12-18T04:20:44;12.27;;;7.55;;
49051;SDS011;34866;48.670;18.260;2022-12-18T04:23:10;5.88;;;4.28;;
49051;SDS011;34866;48.670;18.260;2022-12-18T04:25:36;12.55;;;6.57;;
49051;SDS011;34866;48.670;18.260;2022-12-18T04:28:01;10.15;;;6.93;;
49051;SDS011;34866;48.670;18.260;2022-12-18T04:30:27;9.95;;;4.47;;
49051;SDS011;34866;48.670;18.260;2022-12-18T04:32:53;14.15;;;5.15;;
49051;SDS011;34866;48.670;18.260;2022-12-18T04:35:19;8.45;;;5.35;;
49051;SDS011;34866;48.670;18.260;2022-12-18T04:37:44;20.50;;;6.85;;
49051;SDS011;34866;48.670;18.260;2022-12-18T04:40:10;6.25;;;5.53;;
49051;SDS011;34866;48.670;18.260;2022-12-18T04:42:36;10.80;;;5.55;;
49051;SDS011;34866;48.670;18.260;2022-12-18T04:45:03;12.77;;;7.03;;
49051;SDS011;34866;48.670;18.260;2022-12-18T04:47:30;14.60;;;7.18;;
49051;SDS011;34866;48.670;18.260;2022-12-18T04:49:55;18.17;;;8.73;;
49051;SDS011;34866;48.670;18.260;2022-12-18T04:52:21;18.98;;;9.43;;
49051;SDS011;34866;48.670;18.260;2022-12-18T04:54:47;19.17;;;9.57;;
49051;SDS011;34866;48.670;18.260;2022-12-18T04:57:12;11.85;;;7.57;;
49051;SDS011;34866;48.670;18.260;2022-12-18T04:59:38;8.40;;;7.22;;
49051;SDS011;34866;48.670;18.260;2022-12-18T05:02:03;12.98;;;7.47;;
49051;SDS011;34866;48.670;18.260;2022-12-18T05:04:29;7.32;;;5.15;;
49051;SDS011;34866;48.670;18.260;2022-12-18T05:07:02;9.23;;;4.85;;
49051;SDS011;34866;48.670;18.260;2022-12-18T05:09:27;11.82;;;6.28;;
49051;SDS011;34866;48.670;18.260;2022-12-18T05:11:53;5.80;;;4.50;;
49051;SDS011;34866;48.670;18.260;2022-12-18T05:14:19;14.20;;;6.43;;
49051;SDS011;34866;48.670;18.260;2022-12-18T05:16:44;20.95;;;7.38;;
49051;SDS011;34866;48.670;18.260;2022-12-18T05:19:16;24.58;;;7.20;;
49051;SDS011;34866;48.670;18.260;2022-12-18T05:21:43;16.67;;;8.30;;
49051;SDS011;34866;48.670;18.260;2022-12-18T05:24:08;8.55;;;5.07;;
49051;SDS011;34866;48.670;18.260;2022-12-18T05:26:34;4.72;;;4.15;;
49051;SDS011;34866;48.670;18.260;2022-12-18T05:28:59;25.63;;;6.20;;
49051;SDS011;34866;48.670;18.260;2022-12-18T05:31:25;6.63;;;4.47;;
49051;SDS011;34866;48.670;18.260;2022-12-18T05:33:50;7.60;;;4.93;;
49051;SDS011;34866;48.670;18.260;2022-12-18T05:36:16;5.97;;;5.28;;
49051;SDS011;34866;48.670;18.260;2022-12-18T05:38:42;15.05;;;6.80;;
49051;SDS011;34866;48.670;18.260;2022-12-18T05:41:08;11.82;;;7.15;;
49051;SDS011;34866;48.670;18.260;2022-12-18T05:43:35;8.52;;;4.88;;
49051;SDS011;34866;48.670;18.260;2022-12-18T05:46:10;9.05;;;7.07;;
49051;SDS011;34866;48.670;18.260;2022-12-18T05:48:37;10.23;;;5.18;;
49051;SDS011;34866;48.670;18.260;2022-12-18T05:51:07;9.95;;;6.07;;
49051;SDS011;34866;48.670;18.260;2022-12-18T05:53:34;10.18;;;5.88;;
49051;SDS011;34866;48.670;18.260;2022-12-18T05:56:02;13.75;;;4.63;;
49051;SDS011;34866;48.670;18.260;2022-12-18T05:58:30;7.95;;;5.25;;
49051;SDS011;34866;48.670;18.260;2022-12-18T06:00:56;20.38;;;8.90;;
49051;SDS011;34866;48.670;18.260;2022-12-18T06:03:22;19.90;;;5.10;;
49051;SDS011;34866;48.670;18.260;2022-12-18T06:05:47;8.13;;;5.88;;
49051;SDS011;34866;48.670;18.260;2022-12-18T06:08:13;11.15;;;6.93;;
49051;SDS011;34866;48.670;18.260;2022-12-18T06:10:39;8.65;;;5.38;;
49051;SDS011;34866;48.670;18.260;2022-12-18T06:13:05;11.60;;;6.22;;
49051;SDS011;34866;48.670;18.260;2022-12-18T06:15:32;10.88;;;7.10;;
49051;SDS011;34866;48.670;18.260;2022-12-18T06:17:57;5.80;;;4.15;;
49051;SDS011;34866;48.670;18.260;2022-12-18T06:20:25;7.93;;;4.55;;
49051;SDS011;34866;48.670;18.260;2022-12-18T06:22:50;13.15;;;5.05;;
49051;SDS011;34866;48.670;18.260;2022-12-18T06:25:16;11.27;;;7.70;;
49051;SDS011;34866;48.670;18.260;2022-12-18T06:27:42;10.88;;;7.45;;
49051;SDS011;34866;48.670;18.260;2022-12-18T06:30:07;14.23;;;9.55;;
49051;SDS011;34866;48.670;18.260;2022-12-18T06:32:34;17.10;;;8.60;;
49051;SDS011;34866;48.670;18.260;2022-12-18T06:34:59;7.75;;;5.18;;
49051;SDS011;34866;48.670;18.260;2022-12-18T06:37:25;5.70;;;4.32;;
49051;SDS011;34866;48.670;18.260;2022-12-18T06:39:51;11.50;;;3.85;;
49051;SDS011;34866;48.670;18.260;2022-12-18T06:42:17;6.45;;;5.60;;
49051;SDS011;34866;48.670;18.260;2022-12-18T06:44:43;13.65;;;4.72;;
49051;SDS011;34866;48.670;18.260;2022-12-18T06:47:09;8.68;;;6.35;;
49051;SDS011;34866;48.670;18.260;2022-12-18T06:49:35;5.10;;;2.63;;
49051;SDS011;34866;48.670;18.260;2022-12-18T06:52:00;8.57;;;3.78;;
49051;SDS011;34866;48.670;18.260;2022-12-18T06:54:26;7.47;;;4.88;;
49051;SDS011;34866;48.670;18.260;2022-12-18T06:56:51;30.02;;;7.43;;
49051;SDS011;34866;48.670;18.260;2022-12-18T06:59:17;12.10;;;7.05;;
49051;SDS011;34866;48.670;18.260;2022-12-18T07:01:43;4.75;;;3.50;;
49051;SDS011;34866;48.670;18.260;2022-12-18T07:04:08;7.03;;;4.85;;
49051;SDS011;34866;48.670;18.260;2022-12-18T07:06:34;18.75;;;8.52;;
49051;SDS011;34866;48.670;18.260;2022-12-18T07:08:59;8.25;;;4.15;;
49051;SDS011;34866;48.670;18.260;2022-12-18T07:11:25;16.27;;;9.40;;
49051;SDS011;34866;48.670;18.260;2022-12-18T07:13:51;15.77;;;5.50;;
49051;SDS011;34866;48.670;18.260;2022-12-18T07:16:18;10.57;;;5.18;;
49051;SDS011;34866;48.670;18.260;2022-12-18T07:18:45;6.00;;;4.95;;
49051;SDS011;34866;48.670;18.260;2022-12-18T07:21:12;15.75;;;5.05;;
49051;SDS011;34866;48.670;18.260;2022-12-18T07:23:39;10.25;;;5.80;;
49051;SDS011;34866;48.670;18.260;2022-12-18T07:26:06;10.93;;;5.15;;
49051;SDS011;34866;48.670;18.260;2022-12-18T07:28:34;11.75;;;6.95;;
49051;SDS011;34866;48.670;18.260;2022-12-18T07:31:08;9.88;;;6.28;;
49051;SDS011;34866;48.670;18.260;2022-12-18T07:33:35;14.60;;;8.38;;
49051;SDS011;34866;48.670;18.260;2022-12-18T07:36:02;12.48;;;5.63;;
49051;SDS011;34866;48.670;18.260;2022-12-18T07:38:29;13.05;;;6.82;;
49051;SDS011;34866;48.670;18.260;2022-12-18T07:41:29;14.30;;;8.98;;
49051;SDS011;34866;48.670;18.260;2022-12-18T07:43:48;14.60;;;7.63;;
49051;SDS011;34866;48.670;18.260;2022-12-18T07:46:14;12.75;;;7.55;;
49051;SDS011;34866;48.670;18.260;2022-12-18T07:48:41;11.35;;;8.20;;
49051;SDS011;34866;48.670;18.260;2022-12-18T07:51:07;10.65;;;5.80;;
49051;SDS011;34866;48.670;18.260;2022-12-18T07:53:34;8.10;;;5.95;;
49051;SDS011;34866;48.670;18.260;2022-12-18T07:56:19;10.63;;;6.05;;
49051;SDS011;34866;48.670;18.260;2022-12-18T07:58:45;13.18;;;6.43;;
49051;SDS011;34866;48.670;18.260;2022-12-18T08:01:11;9.77;;;5.72;;
49051;SDS011;34866;48.670;18.260;2022-12-18T08:03:37;20.13;;;9.70;;
49051;SDS011;34866;48.670;18.260;2022-12-18T08:06:05;11.60;;;4.75;;
49051;SDS011;34866;48.670;18.260;2022-12-18T08:08:32;8.45;;;4.65;;
49051;SDS011;34866;48.670;18.260;2022-12-18T08:10:59;21.02;;;5.65;;
49051;SDS011;34866;48.670;18.260;2022-12-18T08:13:25;14.15;;;7.65;;
49051;SDS011;34866;48.670;18.260;2022-12-18T08:16:05;11.90;;;4.05;;
49051;SDS011;34866;48.670;18.260;2022-12-18T08:18:32;8.30;;;7.15;;
49051;SDS011;34866;48.670;18.260;2022-12-18T08:21:07;21.33;;;6.78;;
49051;SDS011;34866;48.670;18.260;2022-12-18T08:26:12;21.05;;;12.15;;
49051;SDS011;34866;48.670;18.260;2022-12-18T08:28:38;22.88;;;8.70;;
49051;SDS011;34866;48.670;18.260;2022-12-18T08:31:05;16.50;;;6.32;;
49051;SDS011;34866;48.670;18.260;2022-12-18T08:33:31;16.55;;;7.85;;
49051;SDS011;34866;48.670;18.260;2022-12-18T08:36:00;11.43;;;7.78;;
49051;SDS011;34866;48.670;18.260;2022-12-18T08:38:26;17.20;;;9.60;;
49051;SDS011;34866;48.670;18.260;2022-12-18T08:40:59;15.82;;;7.05;;
49051;SDS011;34866;48.670;18.260;2022-12-18T08:43:29;12.13;;;6.72;;
49051;SDS011;34866;48.670;18.260;2022-12-18T08:46:13;11.00;;;6.47;;
49051;SDS011;34866;48.670;18.260;2022-12-18T08:48:41;9.43;;;8.35;;
49051;SDS011;34866;48.670;18.260;2022-12-18T08:51:06;15.55;;;9.07;;
49051;SDS011;34866;48.670;18.260;2022-12-18T08:53:34;9.82;;;6.82;;
49051;SDS011;34866;48.670;18.260;2022-12-18T08:56:00;20.92;;;9.52;;
49051;SDS011;34866;48.670;18.260;2022-12-18T08:58:27;34.78;;;6.68;;
49051;SDS011;34866;48.670;18.260;2022-12-18T09:00:52;17.58;;;8.48;;
49051;SDS011;34866;48.670;18.260;2022-12-18T09:03:19;10.38;;;6.43;;
49051;SDS011;34866;48.670;18.260;2022-12-18T09:05:47;16.23;;;8.25;;
49051;SDS011;34866;48.670;18.260;2022-12-18T09:08:13;29.33;;;6.95;;
49051;SDS011;34866;48.670;18.260;2022-12-18T09:10:43;16.92;;;6.13;;
49051;SDS011;34866;48.670;18.260;2022-12-18T09:13:10;23.73;;;11.07;;
49051;SDS011;34866;48.670;18.260;2022-12-18T09:15:42;19.30;;;9.10;;
49051;SDS011;34866;48.670;18.260;2022-12-18T09:18:13;19.20;;;6.32;;
49051;SDS011;34866;48.670;18.260;2022-12-18T09:20:39;16.88;;;7.60;;
49051;SDS011;34866;48.670;18.260;2022-12-18T09:23:06;12.40;;;7.47;;
49051;SDS011;34866;48.670;18.260;2022-12-18T09:25:32;17.23;;;7.78;;
49051;SDS011;34866;48.670;18.260;2022-12-18T09:28:00;12.35;;;7.63;;
49051;SDS011;34866;48.670;18.260;2022-12-18T09:30:40;15.02;;;8.95;;
49051;SDS011;34866;48.670;18.260;2022-12-18T09:33:07;19.58;;;7.68;;
49051;SDS011;34866;48.670;18.260;2022-12-18T09:35:36;24.00;;;10.57;;
49051;SDS011;34866;48.670;18.260;2022-12-18T09:38:03;16.08;;;6.68;;
49051;SDS011;34866;48.670;18.260;2022-12-18T09:40:35;22.58;;;11.25;;
49051;SDS011;34866;48.670;18.260;2022-12-18T09:43:05;20.83;;;9.18;;
49051;SDS011;34866;48.670;18.260;2022-12-18T09:45:39;24.80;;;10.38;;
49051;SDS011;34866;48.670;18.260;2022-12-18T09:48:15;15.38;;;8.18;;
49051;SDS011;34866;48.670;18.260;2022-12-18T09:50:53;19.77;;;8.95;;
49051;SDS011;34866;48.670;18.260;2022-12-18T09:53:24;27.65;;;8.85;;
49051;SDS011;34866;48.670;18.260;2022-12-18T09:55:52;17.52;;;9.93;;
49051;SDS011;34866;48.670;18.260;2022-12-18T10:01:00;17.40;;;9.52;;
49051;SDS011;34866;48.670;18.260;2022-12-18T10:03:26;10.35;;;6.53;;
49051;SDS011;34866;48.670;18.260;2022-12-18T10:06:06;14.73;;;7.05;;
49051;SDS011;34866;48.670;18.260;2022-12-18T10:08:43;24.58;;;11.80;;
49051;SDS011;34866;48.670;18.260;2022-12-18T10:11:34;32.95;;;10.90;;
49051;SDS011;34866;48.670;18.260;2022-12-18T10:19:58;24.40;;;12.35;;
49051;SDS011;34866;48.670;18.260;2022-12-18T10:28:14;38.42;;;14.25;;
49051;SDS011;34866;48.670;18.260;2022-12-18T10:30:42;36.53;;;14.45;;
49051;SDS011;34866;48.670;18.260;2022-12-18T10:33:10;38.13;;;13.68;;
49051;SDS011;34866;48.670;18.260;2022-12-18T10:35:41;41.50;;;13.68;;
49051;SDS011;34866;48.670;18.260;2022-12-18T10:38:28;37.70;;;13.98;;
49051;SDS011;34866;48.670;18.260;2022-12-18T10:40:58;30.92;;;12.40;;
49051;SDS011;34866;48.670;18.260;2022-12-18T10:46:01;36.45;;;14.82;;
49051;SDS011;34866;48.670;18.260;2022-12-18T10:48:34;40.45;;;14.98;;
49051;SDS011;34866;48.670;18.260;2022-12-18T10:51:05;35.97;;;14.85;;
49051;SDS011;34866;48.670;18.260;2022-12-18T10:53:33;34.05;;;14.90;;
49051;SDS011;34866;48.670;18.260;2022-12-18T10:56:01;36.70;;;13.93;;
49051;SDS011;34866;48.670;18.260;2022-12-18T10:58:30;34.05;;;14.57;;
49051;SDS011;34866;48.670;18.260;2022-12-18T11:03:40;33.30;;;12.60;;
49051;SDS011;34866;48.670;18.260;2022-12-18T11:06:10;35.35;;;10.18;;
49051;SDS011;34866;48.670;18.260;2022-12-18T11:08:46;25.77;;;11.23;;
49051;SDS011;34866;48.670;18.260;2022-12-18T11:11:29;32.63;;;11.82;;
49051;SDS011;34866;48.670;18.260;2022-12-18T11:16:29;35.88;;;13.43;;
49051;SDS011;34866;48.670;18.260;2022-12-18T11:19:13;30.30;;;11.63;;
49051;SDS011;34866;48.670;18.260;2022-12-18T11:21:58;39.15;;;14.00;;
49051;SDS011;34866;48.670;18.260;2022-12-18T11:27:00;31.73;;;13.48;;
49051;SDS011;34866;48.670;18.260;2022-12-18T11:29:31;34.92;;;14.70;;
49051;SDS011;34866;48.670;18.260;2022-12-18T11:32:12;34.97;;;13.65;;
49051;SDS011;34866;48.670;18.260;2022-12-18T11:34:48;35.70;;;13.65;;
49051;SDS011;34866;48.670;18.260;2022-12-18T11:37:18;38.08;;;14.10;;
49051;SDS011;34866;48.670;18.260;2022-12-18T11:39:45;35.33;;;14.07;;
49051;SDS011;34866;48.670;18.260;2022-12-18T11:44:59;34.75;;;14.27;;
49051;SDS011;34866;48.670;18.260;2022-12-18T11:50:01;35.72;;;12.52;;
49051;SDS011;34866;48.670;18.260;2022-12-18T11:52:34;30.63;;;13.93;;
49051;SDS011;34866;48.670;18.260;2022-12-18T11:57:57;30.10;;;11.57;;
49051;SDS011;34866;48.670;18.260;2022-12-18T12:00:50;33.53;;;13.38;;
49051;SDS011;34866;48.670;18.260;2022-12-18T12:06:38;33.63;;;13.55;;
49051;SDS011;34866;48.670;18.260;2022-12-18T12:16:56;36.72;;;13.27;;
49051;SDS011;34866;48.670;18.260;2022-12-18T12:25:40;31.90;;;12.30;;
49051;SDS011;34866;48.670;18.260;2022-12-18T12:31:31;32.53;;;10.93;;
49051;SDS011;34866;48.670;18.260;2022-12-18T12:39:34;31.98;;;10.65;;
49051;SDS011;34866;48.670;18.260;2022-12-18T12:42:13;34.20;;;12.93;;
49051;SDS011;34866;48.670;18.260;2022-12-18T12:45:22;32.15;;;12.23;;
49051;SDS011;34866;48.670;18.260;2022-12-18T12:47:52;32.75;;;12.02;;
49051;SDS011;34866;48.670;18.260;2022-12-18T12:50:29;32.78;;;12.88;;
49051;SDS011;34866;48.670;18.260;2022-12-18T12:52:58;25.55;;;9.88;;
49051;SDS011;34866;48.670;18.260;2022-12-18T12:55:31;35.70;;;11.88;;
49051;SDS011;34866;48.670;18.260;2022-12-18T13:08:53;30.90;;;10.63;;
49051;SDS011;34866;48.670;18.260;2022-12-18T13:11:35;30.95;;;10.60;;
49051;SDS011;34866;48.670;18.260;2022-12-18T13:14:26;29.70;;;10.02;;
49051;SDS011;34866;48.670;18.260;2022-12-18T13:19:48;30.80;;;10.90;;
49051;SDS011;34866;48.670;18.260;2022-12-18T13:22:32;32.75;;;13.25;;
49051;SDS011;34866;48.670;18.260;2022-12-18T13:28:10;38.35;;;13.45;;
49051;SDS011;34866;48.670;18.260;2022-12-18T13:30:41;34.67;;;13.45;;
49051;SDS011;34866;48.670;18.260;2022-12-18T13:38:42;36.22;;;11.75;;
49051;SDS011;34866;48.670;18.260;2022-12-18T13:43:48;31.50;;;11.60;;
49051;SDS011;34866;48.670;18.260;2022-12-18T13:51:43;31.95;;;11.35;;
49051;SDS011;34866;48.670;18.260;2022-12-18T13:56:55;33.28;;;10.73;;
49051;SDS011;34866;48.670;18.260;2022-12-18T13:59:22;37.65;;;11.23;;
49051;SDS011;34866;48.670;18.260;2022-12-18T14:04:24;28.10;;;13.35;;
49051;SDS011;34866;48.670;18.260;2022-12-18T14:09:56;27.92;;;10.25;;
49051;SDS011;34866;48.670;18.260;2022-12-18T14:12:25;28.00;;;10.50;;
49051;SDS011;34866;48.670;18.260;2022-12-18T14:15:23;20.45;;;10.48;;
49051;SDS011;34866;48.670;18.260;2022-12-18T14:20:26;26.55;;;11.32;;
49051;SDS011;34866;48.670;18.260;2022-12-18T14:22:54;24.17;;;9.80;;
49051;SDS011;34866;48.670;18.260;2022-12-18T14:25:22;24.30;;;10.18;;
49051;SDS011;34866;48.670;18.260;2022-12-18T14:28:00;20.30;;;8.65;;
49051;SDS011;34866;48.670;18.260;2022-12-18T14:30:39;17.52;;;9.23;;
49051;SDS011;34866;48.670;18.260;2022-12-18T14:33:10;20.92;;;9.95;;
49051;SDS011;34866;48.670;18.260;2022-12-18T14:36:14;16.20;;;8.20;;
49051;SDS011;34866;48.670;18.260;2022-12-18T14:38:40;14.80;;;6.72;;
49051;SDS011;34866;48.670;18.260;2022-12-18T14:41:13;33.25;;;11.10;;
49051;SDS011;34866;48.670;18.260;2022-12-18T14:43:41;25.73;;;12.10;;
49051;SDS011;34866;48.670;18.260;2022-12-18T14:48:54;20.45;;;11.95;;
49051;SDS011;34866;48.670;18.260;2022-12-18T14:51:21;34.38;;;13.50;;
49051;SDS011;34866;48.670;18.260;2022-12-18T14:53:49;20.95;;;11.48;;
49051;SDS011;34866;48.670;18.260;2022-12-18T14:56:21;24.20;;;12.05;;
49051;SDS011;34866;48.670;18.260;2022-12-18T14:58:48;21.02;;;10.40;;
49051;SDS011;34866;48.670;18.260;2022-12-18T15:01:33;28.05;;;9.73;;
49051;SDS011;34866;48.670;18.260;2022-12-18T15:04:02;16.67;;;9.45;;
49051;SDS011;34866;48.670;18.260;2022-12-18T15:06:34;24.83;;;11.23;;
49051;SDS011;34866;48.670;18.260;2022-12-18T15:09:21;27.52;;;11.65;;
49051;SDS011;34866;48.670;18.260;2022-12-18T15:11:48;21.05;;;10.25;;
49051;SDS011;34866;48.670;18.260;2022-12-18T15:17:00;15.32;;;7.00;;
49051;SDS011;34866;48.670;18.260;2022-12-18T15:19:41;14.73;;;8.35;;
49051;SDS011;34866;48.670;18.260;2022-12-18T15:24:55;14.25;;;9.27;;
49051;SDS011;34866;48.670;18.260;2022-12-18T15:27:26;13.77;;;7.18;;
49051;SDS011;34866;48.670;18.260;2022-12-18T15:32:35;50.95;;;10.43;;
49051;SDS011;34866;48.670;18.260;2022-12-18T15:35:24;14.40;;;8.57;;
49051;SDS011;34866;48.670;18.260;2022-12-18T15:37:50;24.10;;;10.40;;
49051;SDS011;34866;48.670;18.260;2022-12-18T15:40:17;16.35;;;8.40;;
49051;SDS011;34866;48.670;18.260;2022-12-18T15:42:48;14.32;;;7.43;;
49051;SDS011;34866;48.670;18.260;2022-12-18T15:45:36;16.35;;;7.97;;
49051;SDS011;34866;48.670;18.260;2022-12-18T15:48:17;35.25;;;8.25;;
49051;SDS011;34866;48.670;18.260;2022-12-18T15:50:51;21.48;;;10.02;;
49051;SDS011;34866;48.670;18.260;2022-12-18T15:53:20;13.55;;;6.63;;
49051;SDS011;34866;48.670;18.260;2022-12-18T15:55:46;19.88;;;8.90;;
49051;SDS011;34866;48.670;18.260;2022-12-18T15:58:30;21.90;;;8.32;;
49051;SDS011;34866;48.670;18.260;2022-12-18T16:00:55;10.80;;;7.22;;
49051;SDS011;34866;48.670;18.260;2022-12-18T16:03:23;16.70;;;8.52;;
49051;SDS011;34866;48.670;18.260;2022-12-18T16:05:49;10.75;;;6.35;;
49051;SDS011;34866;48.670;18.260;2022-12-18T16:08:14;16.25;;;9.20;;
49051;SDS011;34866;48.670;18.260;2022-12-18T16:10:40;11.20;;;7.35;;
49051;SDS011;34866;48.670;18.260;2022-12-18T16:13:06;15.60;;;7.68;;
49051;SDS011;34866;48.670;18.260;2022-12-18T16:15:35;17.92;;;5.78;;
49051;SDS011;34866;48.670;18.260;2022-12-18T16:18:01;17.40;;;6.80;;
49051;SDS011;34866;48.670;18.260;2022-12-18T16:20:27;19.95;;;5.18;;
49051;SDS011;34866;48.670;18.260;2022-12-18T16:22:53;21.10;;;8.15;;
49051;SDS011;34866;48.670;18.260;2022-12-18T16:25:19;27.25;;;12.25;;
49051;SDS011;34866;48.670;18.260;2022-12-18T16:27:46;15.30;;;9.15;;
49051;SDS011;34866;48.670;18.260;2022-12-18T16:30:16;14.07;;;9.07;;
49051;SDS011;34866;48.670;18.260;2022-12-18T16:32:45;14.63;;;8.23;;
49051;SDS011;34866;48.670;18.260;2022-12-18T16:35:14;36.67;;;8.93;;
49051;SDS011;34866;48.670;18.260;2022-12-18T16:37:41;21.27;;;7.03;;
49051;SDS011;34866;48.670;18.260;2022-12-18T16:40:09;14.57;;;8.77;;
49051;SDS011;34866;48.670;18.260;2022-12-18T16:42:37;19.88;;;8.13;;
49051;SDS011;34866;48.670;18.260;2022-12-18T16:45:04;10.23;;;8.25;;
49051;SDS011;34866;48.670;18.260;2022-12-18T16:47:31;17.42;;;9.68;;
49051;SDS011;34866;48.670;18.260;2022-12-18T16:49:57;16.35;;;10.52;;
49051;SDS011;34866;48.670;18.260;2022-12-18T16:52:24;14.57;;;8.50;;